createdAt,value
2018-01-31T01:53:15.485Z,10.38
2018-01-31T01:55:44.806Z,10.26
2018-01-31T01:58:13.085Z,10.26
2018-01-31T02:00:41.379Z,10.26
2018-01-31T02:03:09.673Z,10.27
2018-01-31T02:05:38.005Z,10.24
2018-01-31T02:08:06.281Z,10.29
2018-01-31T02:10:34.557Z,10.32
2018-01-31T02:13:02.857Z,10.33
2018-01-31T02:15:31.117Z,10.34
2018-01-31T02:17:59.409Z,10.34
2018-01-31T02:20:27.674Z,10.24
2018-01-31T02:22:55.972Z,10.20
2018-01-31T02:25:24.247Z,10.18
2018-01-31T02:27:52.545Z,10.11
2018-01-31T02:30:20.806Z,10.06
2018-01-31T02:32:49.106Z,10.16
2018-01-31T02:35:17.399Z,10.13
2018-01-31T02:37:45.730Z,10.19
2018-01-31T02:40:16.834Z,10.18
2018-01-31T02:42:45.098Z,10.20
2018-01-31T02:45:13.430Z,10.17
2018-01-31T02:47:41.710Z,10.22
2018-01-31T02:50:09.988Z,10.21
2018-01-31T02:52:38.254Z,10.23
2018-01-31T02:55:06.535Z,10.18
2018-01-31T02:57:34.818Z,10.16
2018-01-31T03:00:03.119Z,10.21
2018-01-31T03:02:31.393Z,10.26
2018-01-31T03:04:59.682Z,10.25
2018-01-31T03:07:27.974Z,10.30
2018-01-31T03:09:56.243Z,10.26
2018-01-31T03:12:24.530Z,10.32
2018-01-31T03:14:52.788Z,10.31
2018-01-31T03:17:21.134Z,10.29
2018-01-31T03:19:49.406Z,10.33
2018-01-31T03:22:17.722Z,10.29
2018-01-31T03:24:45.995Z,10.26
2018-01-31T03:27:14.296Z,10.27
2018-01-31T03:29:42.554Z,10.36
2018-01-31T03:32:10.853Z,10.33
2018-01-31T03:34:39.167Z,10.32
2018-01-31T03:37:07.439Z,10.37
2018-01-31T03:39:35.729Z,10.34
2018-01-31T03:42:04.659Z,10.31
2018-01-31T03:44:32.951Z,10.20
2018-01-31T03:47:01.217Z,10.27
2018-01-31T03:49:29.535Z,10.31
2018-01-31T03:51:57.849Z,10.23
2018-01-31T03:54:26.125Z,10.33
2018-01-31T03:56:54.402Z,10.24
2018-01-31T03:59:22.681Z,10.17
2018-01-31T04:01:50.974Z,10.26
2018-01-31T04:04:19.230Z,10.21
2018-01-31T04:06:47.518Z,10.14
2018-01-31T04:09:15.778Z,10.08
2018-01-31T04:11:44.064Z,10.15
2018-01-31T04:14:12.333Z,10.18
2018-01-31T04:16:40.659Z,10.17
2018-01-31T04:19:08.951Z,10.23
2018-01-31T04:21:37.226Z,10.21
2018-01-31T04:24:05.517Z,10.20
2018-01-31T04:26:33.793Z,10.27
2018-01-31T04:29:02.095Z,10.26
2018-01-31T04:31:30.384Z,10.27
2018-01-31T04:33:58.667Z,10.25
2018-01-31T04:36:26.946Z,10.24
2018-01-31T04:38:55.343Z,10.23
2018-01-31T04:41:23.640Z,10.14
2018-01-31T04:43:51.926Z,10.17
2018-01-31T04:46:20.217Z,10.19
2018-01-31T04:48:48.492Z,10.24
2018-01-31T04:51:17.094Z,10.21
2018-01-31T04:53:45.368Z,10.25
2018-01-31T04:56:13.661Z,10.25
2018-01-31T04:58:41.911Z,10.10
2018-01-31T05:01:10.203Z,10.15
2018-01-31T05:03:39.364Z,10.13
2018-01-31T05:06:07.654Z,10.15
2018-01-31T05:08:36.034Z,10.11
2018-01-31T05:11:04.932Z,10.14
2018-01-31T05:13:33.248Z,10.13
2018-01-31T05:16:01.508Z,10.13
2018-01-31T05:18:29.795Z,10.18
2018-01-31T05:20:58.366Z,10.27
2018-01-31T05:23:26.662Z,10.22
2018-01-31T05:25:54.914Z,10.14
2018-01-31T05:28:23.196Z,10.16
2018-01-31T05:30:51.463Z,10.09
2018-01-31T05:33:19.746Z,10.09
2018-01-31T05:35:48.035Z,10.10
2018-01-31T05:38:16.316Z,10.12
2018-01-31T05:40:44.700Z,10.17
2018-01-31T05:43:12.967Z,10.13
2018-01-31T05:45:41.262Z,10.14
2018-01-31T05:48:09.553Z,10.17
2018-01-31T05:50:37.834Z,10.12
2018-01-31T05:53:06.115Z,10.20
2018-01-31T05:55:35.279Z,10.24
2018-01-31T05:58:03.569Z,10.28
2018-01-31T06:00:31.860Z,10.26
2018-01-31T06:03:00.140Z,10.31
2018-01-31T06:05:28.426Z,10.21
2018-01-31T06:07:56.690Z,10.16
2018-01-31T06:10:24.990Z,10.18
2018-01-31T06:12:53.275Z,10.17
2018-01-31T06:15:21.578Z,10.21
2018-01-31T06:17:49.870Z,10.18
2018-01-31T06:20:18.180Z,9.90
2018-01-31T06:22:46.531Z,10.12
2018-01-31T06:25:14.952Z,10.15
2018-01-31T06:27:43.255Z,10.17
2018-01-31T06:30:11.502Z,10.13
2018-01-31T06:32:40.184Z,10.08
2018-01-31T06:35:08.446Z,10.11
2018-01-31T06:37:36.819Z,10.11
2018-01-31T06:40:05.127Z,10.14
2018-01-31T06:42:34.288Z,10.03
2018-01-31T06:45:02.616Z,10.08
2018-01-31T06:47:30.884Z,10.08
2018-01-31T06:49:59.260Z,10.05
2018-01-31T06:52:27.540Z,10.09
2018-01-31T06:54:55.828Z,10.12
2018-01-31T06:57:24.507Z,9.98
2018-01-31T06:59:52.771Z,10.04
2018-01-31T07:02:21.039Z,10.09
2018-01-31T07:04:49.335Z,10.01
2018-01-31T07:07:17.801Z,10.12
2018-01-31T07:09:46.070Z,9.98
2018-01-31T07:12:14.370Z,9.99
2018-01-31T07:14:42.653Z,9.97
2018-01-31T07:17:10.901Z,10.03
2018-01-31T07:19:39.249Z,10.10
2018-01-31T07:22:07.533Z,10.07
2018-01-31T07:24:35.897Z,9.87
2018-01-31T07:27:04.500Z,10.06
2018-01-31T07:29:33.725Z,10.06
2018-01-31T07:32:05.025Z,10.06
2018-01-31T07:34:33.438Z,10.06
2018-01-31T07:37:01.728Z,10.08
2018-01-31T07:39:30.019Z,10.04
2018-01-31T07:41:58.370Z,10.09
2018-01-31T07:44:26.669Z,10.13
2018-01-31T07:46:54.980Z,10.08
2018-01-31T07:49:23.301Z,9.91
2018-01-31T07:51:51.584Z,10.01
2018-01-31T07:54:19.932Z,10.01
2018-01-31T07:56:48.383Z,10.07
2018-01-31T07:59:16.696Z,9.84
2018-01-31T08:01:44.960Z,10.06
2018-01-31T08:04:13.265Z,10.14
2018-01-31T08:06:43.613Z,10.17
2018-01-31T08:09:12.140Z,10.21
2018-01-31T08:11:40.443Z,10.20
2018-01-31T08:14:08.804Z,10.12
2018-01-31T08:16:37.079Z,10.24
2018-01-31T08:19:06.223Z,10.27
2018-01-31T08:21:34.558Z,10.22
2018-01-31T08:24:02.824Z,10.08
2018-01-31T08:26:31.953Z,10.12
2018-01-31T08:29:00.306Z,10.10
2018-01-31T08:31:28.613Z,10.23
2018-01-31T08:33:57.028Z,10.18
2018-01-31T08:36:25.387Z,10.19
2018-01-31T08:38:53.639Z,10.09
2018-01-31T08:41:21.931Z,10.10
2018-01-31T08:43:50.196Z,10.07
2018-01-31T08:46:18.673Z,10.10
2018-01-31T08:48:46.954Z,10.09
2018-01-31T08:51:15.229Z,10.11
2018-01-31T08:53:43.548Z,10.11
2018-01-31T08:56:11.924Z,10.17
2018-01-31T08:58:40.413Z,10.11
2018-01-31T09:01:08.872Z,10.00
2018-01-31T09:03:37.196Z,9.98
2018-01-31T09:06:05.475Z,10.04
2018-01-31T09:08:33.776Z,10.07
2018-01-31T09:11:02.060Z,10.05
2018-01-31T09:13:30.359Z,10.13
2018-01-31T09:15:58.653Z,10.13
2018-01-31T09:18:27.899Z,10.16
2018-01-31T09:20:56.200Z,10.15
2018-01-31T09:23:25.371Z,10.14
2018-01-31T09:25:53.673Z,10.01
2018-01-31T09:28:22.644Z,9.98
2018-01-31T09:30:50.926Z,10.07
2018-01-31T09:33:19.306Z,10.02
2018-01-31T09:35:47.590Z,9.96
2018-01-31T09:38:15.889Z,9.95
2018-01-31T09:40:45.675Z,9.93
2018-01-31T09:43:13.957Z,9.89
2018-01-31T09:45:42.363Z,9.93
2018-01-31T09:48:10.714Z,9.92
2018-01-31T09:50:39.541Z,9.93
2018-01-31T09:53:07.872Z,9.88
2018-01-31T09:55:36.147Z,9.86
2018-01-31T09:58:04.888Z,9.82
2018-01-31T10:00:33.214Z,9.92
2018-01-31T10:03:02.305Z,9.89
2018-01-31T10:05:30.594Z,9.93
2018-01-31T10:07:58.920Z,9.93
2018-01-31T10:10:27.227Z,9.99
2018-01-31T10:12:55.525Z,9.97
2018-01-31T10:15:23.871Z,9.98
2018-01-31T10:17:52.166Z,10.01
2018-01-31T10:20:20.456Z,10.05
2018-01-31T10:22:48.763Z,10.10
2018-01-31T10:25:17.088Z,9.52
2018-01-31T10:27:45.362Z,10.13
2018-01-31T10:30:14.459Z,10.16
2018-01-31T10:32:42.788Z,10.19
2018-01-31T10:35:11.131Z,10.22
2018-01-31T10:37:39.419Z,10.28
2018-01-31T10:40:07.689Z,10.38
2018-01-31T10:42:36.249Z,10.36
2018-01-31T10:45:05.086Z,10.30
2018-01-31T10:47:33.445Z,10.21
2018-01-31T10:50:01.721Z,10.34
2018-01-31T10:52:30.042Z,10.40
2018-01-31T10:57:28.576Z,10.46
2018-01-31T10:57:29.193Z,10.46
2018-01-31T10:59:54.926Z,10.47
2018-01-31T11:02:23.205Z,10.49
2018-01-31T11:04:51.546Z,10.42
2018-01-31T11:07:19.827Z,10.36
2018-01-31T11:09:48.135Z,10.36
2018-01-31T11:12:16.460Z,10.23
2018-01-31T11:14:44.834Z,10.43
2018-01-31T11:17:13.115Z,10.49
2018-01-31T11:19:41.406Z,10.47
2018-01-31T11:22:09.830Z,10.51
2018-01-31T11:24:38.072Z,10.55
2018-01-31T11:27:06.372Z,10.57
2018-01-31T11:29:34.728Z,10.52
2018-01-31T11:32:03.027Z,10.58
2018-01-31T11:34:31.370Z,10.47
2018-01-31T11:36:59.762Z,10.56
2018-01-31T11:39:28.783Z,10.54
2018-01-31T11:41:57.198Z,10.49
2018-01-31T11:44:25.940Z,10.52
2018-01-31T11:46:54.314Z,10.46
2018-01-31T11:49:23.675Z,10.41
2018-01-31T11:51:52.074Z,10.48
2018-01-31T11:54:20.454Z,10.56
2018-01-31T11:56:48.805Z,10.47
2018-01-31T11:59:17.106Z,10.43
2018-01-31T12:01:46.142Z,10.42
2018-01-31T12:04:14.496Z,10.48
2018-01-31T12:06:42.756Z,10.48
2018-01-31T12:12:10.285Z,10.40
2018-01-31T12:14:50.198Z,10.44
2018-01-31T12:17:18.484Z,10.46
2018-01-31T12:20:13.149Z,10.49
2018-01-31T12:22:53.082Z,10.33
2018-01-31T12:25:33.259Z,10.41
2018-01-31T12:28:13.391Z,10.41
2018-01-31T12:30:48.544Z,10.37
2018-01-31T12:33:28.574Z,10.25
2018-01-31T12:36:08.950Z,10.42
2018-01-31T12:38:48.986Z,10.22
2018-01-31T12:41:16.756Z,10.37
2018-01-31T12:43:44.583Z,10.29
2018-01-31T12:46:24.610Z,10.18
2018-01-31T12:52:13.572Z,10.23
2018-01-31T12:54:53.780Z,10.13
2018-01-31T12:57:30.922Z,10.02
2018-01-31T13:00:11.159Z,10.15
2018-01-31T13:05:52.350Z,10.13
2018-01-31T13:08:32.551Z,10.17
2018-01-31T13:14:14.541Z,9.93
2018-01-31T13:16:54.641Z,9.89
2018-01-31T13:19:34.728Z,9.85
2018-01-31T13:25:27.723Z,9.91
2018-01-31T13:28:13.613Z,9.98
2018-01-31T13:30:49.478Z,9.85
2018-01-31T13:33:29.598Z,9.86
2018-01-31T13:36:09.661Z,9.92
2018-01-31T13:38:49.604Z,9.90
2018-01-31T13:41:29.671Z,9.86
2018-01-31T13:44:06.652Z,9.83
2018-01-31T13:46:46.695Z,9.85
2018-01-31T13:52:29.638Z,9.83
2018-01-31T13:55:09.548Z,9.85
2018-01-31T13:57:49.782Z,9.70
2018-01-31T14:00:29.891Z,9.81
2018-01-31T14:03:10.051Z,9.88
2018-01-31T14:05:50.305Z,9.85
2018-01-31T14:08:30.320Z,9.83
2018-01-31T14:11:10.574Z,9.79
2018-01-31T14:13:50.566Z,9.83
2018-01-31T14:16:30.729Z,9.96
2018-01-31T14:19:10.696Z,9.93
2018-01-31T14:21:50.653Z,9.90
2018-01-31T14:24:30.575Z,9.97
2018-01-31T14:27:10.843Z,9.96
2018-01-31T14:29:50.754Z,9.71
2018-01-31T14:35:33.411Z,9.75
2018-01-31T14:38:01.284Z,9.79
2018-01-31T14:40:28.996Z,9.82
2018-01-31T14:42:56.783Z,9.65
2018-01-31T14:45:24.648Z,9.60
2018-01-31T14:47:52.407Z,9.64
2018-01-31T14:50:20.200Z,9.54
2018-01-31T14:52:48.001Z,9.56
2018-01-31T14:55:15.731Z,9.60
2018-01-31T14:57:43.488Z,9.53
2018-01-31T15:00:11.319Z,9.52
2018-01-31T15:02:39.123Z,9.65
2018-01-31T15:05:07.522Z,9.75
2018-01-31T15:07:35.290Z,9.80
2018-01-31T15:10:04.159Z,9.73
2018-01-31T15:12:31.929Z,9.64
2018-01-31T15:15:00.684Z,9.63
2018-01-31T15:17:28.420Z,9.62
2018-01-31T15:19:56.231Z,9.60
2018-01-31T15:22:24.005Z,9.55
2018-01-31T15:24:51.740Z,9.47
2018-01-31T15:27:19.490Z,9.34
2018-01-31T15:29:47.391Z,9.34
2018-01-31T15:32:15.476Z,9.35
2018-01-31T15:34:43.242Z,9.24
2018-01-31T15:37:11.001Z,9.43
2018-01-31T15:39:38.799Z,9.39
2018-01-31T15:42:06.570Z,9.25
2018-01-31T15:44:34.988Z,9.21
2018-01-31T15:47:03.806Z,9.16
2018-01-31T15:49:31.591Z,9.24
2018-01-31T15:51:59.438Z,9.26
2018-01-31T15:54:27.190Z,9.16
2018-01-31T15:56:54.971Z,9.22
2018-01-31T15:59:22.942Z,9.14
2018-01-31T16:01:50.657Z,9.12
2018-01-31T16:04:18.526Z,9.19
2018-01-31T16:06:46.318Z,9.18
2018-01-31T16:09:14.086Z,9.18
2018-01-31T16:11:41.953Z,9.19
2018-01-31T16:14:09.669Z,9.13
2018-01-31T16:16:37.979Z,9.03
2018-01-31T16:22:05.146Z,9.09
2018-01-31T16:24:34.446Z,9.04
2018-01-31T16:27:02.898Z,8.94
2018-01-31T16:29:46.903Z,8.91
2018-01-31T16:32:26.919Z,8.89
2018-01-31T16:34:55.275Z,8.89
2018-01-31T16:37:23.671Z,8.81
2018-01-31T16:39:52.137Z,8.77
2018-01-31T16:42:20.590Z,8.81
2018-01-31T16:44:48.991Z,8.79
2018-01-31T16:47:17.384Z,8.74
2018-01-31T16:49:46.348Z,8.83
2018-01-31T16:52:14.801Z,8.85
2018-01-31T16:54:43.096Z,8.86
2018-01-31T16:57:11.400Z,8.78
2018-01-31T16:59:39.817Z,8.83
2018-01-31T17:02:08.199Z,8.90
2018-01-31T17:04:36.532Z,8.93
2018-01-31T17:07:04.952Z,8.64
2018-01-31T17:09:33.482Z,8.90
2018-01-31T17:12:01.796Z,8.94
2018-01-31T17:14:30.167Z,8.88
2018-01-31T17:16:58.482Z,8.93
2018-01-31T17:19:26.774Z,8.93
2018-01-31T17:21:56.304Z,8.96
2018-01-31T17:24:24.617Z,8.99
2018-01-31T17:26:53.012Z,9.00
2018-01-31T17:29:21.347Z,8.96
2018-01-31T17:31:51.341Z,8.90
2018-01-31T17:34:19.662Z,8.90
2018-01-31T17:36:48.005Z,8.93
2018-01-31T17:39:16.278Z,8.95
2018-01-31T17:41:45.435Z,8.96
2018-01-31T17:44:13.731Z,8.95
2018-01-31T17:46:42.863Z,8.95
2018-01-31T17:49:11.180Z,8.89
2018-01-31T17:51:39.512Z,8.87
2018-01-31T17:54:08.358Z,8.82
2018-01-31T17:56:36.742Z,8.76
2018-01-31T17:59:05.149Z,8.81
2018-01-31T18:01:33.546Z,8.82
2018-01-31T18:04:02.682Z,8.81
2018-01-31T18:06:31.093Z,8.81
2018-01-31T18:08:59.499Z,8.79
2018-01-31T18:11:27.750Z,8.73
2018-01-31T18:13:56.048Z,8.75
2018-01-31T18:16:24.324Z,8.79
2018-01-31T18:18:52.625Z,8.89
2018-01-31T18:21:21.747Z,8.75
2018-01-31T18:23:50.097Z,8.79
2018-01-31T18:26:19.186Z,8.56
2018-01-31T18:28:47.470Z,8.78
2018-01-31T18:31:15.923Z,8.77
2018-01-31T18:33:44.234Z,8.81
2018-01-31T18:36:12.523Z,8.77
2018-01-31T18:38:40.808Z,8.79
2018-01-31T18:41:09.811Z,8.78
2018-01-31T18:43:38.091Z,8.76
2018-01-31T18:46:06.419Z,8.81
2018-01-31T18:48:34.672Z,8.72
2018-01-31T18:51:03.002Z,8.82
2018-01-31T18:53:31.283Z,8.81
2018-01-31T18:55:59.576Z,8.83
2018-01-31T18:58:27.884Z,8.78
2018-01-31T19:00:56.205Z,8.83
2018-01-31T19:03:24.511Z,8.79
2018-01-31T19:05:54.022Z,8.89
2018-01-31T19:08:22.686Z,8.76
2018-01-31T19:10:51.025Z,8.69
2018-01-31T19:13:19.379Z,8.79
2018-01-31T19:15:47.676Z,8.89
2018-01-31T19:18:15.993Z,8.87
2018-01-31T19:20:45.777Z,8.76
2018-01-31T19:23:14.986Z,8.71
2018-01-31T19:25:43.318Z,8.69
2018-01-31T19:28:11.633Z,8.72
2018-01-31T19:30:39.968Z,8.61
2018-01-31T19:33:08.304Z,8.68
2018-01-31T19:35:36.570Z,8.67
2018-01-31T19:38:05.388Z,8.69
2018-01-31T19:40:33.692Z,8.71
2018-01-31T19:43:02.017Z,8.72
2018-01-31T19:45:30.312Z,8.83
2018-01-31T19:47:58.586Z,8.81
2018-01-31T19:50:26.872Z,8.76
2018-01-31T19:52:55.431Z,8.80
2018-01-31T19:55:23.762Z,8.64
2018-01-31T19:57:52.023Z,8.72
2018-01-31T20:00:20.362Z,8.70
2018-01-31T20:02:49.023Z,8.70
2018-01-31T20:05:17.426Z,8.74
2018-01-31T20:07:45.750Z,8.72
2018-01-31T20:10:14.262Z,8.63
2018-01-31T20:12:42.612Z,8.62
2018-01-31T20:15:11.046Z,8.55
2018-01-31T20:17:39.351Z,8.50
2018-01-31T20:20:07.654Z,8.43
2018-01-31T20:22:35.963Z,8.41
2018-01-31T20:25:04.598Z,8.41
2018-01-31T20:27:33.126Z,8.53
2018-01-31T20:30:01.425Z,8.61
2018-01-31T20:32:29.784Z,8.53
2018-01-31T20:34:59.041Z,8.48
2018-01-31T20:37:27.368Z,8.41
2018-01-31T20:39:55.790Z,7.87
2018-01-31T20:42:24.040Z,8.33
2018-01-31T20:44:52.339Z,8.29
2018-01-31T20:47:20.591Z,8.23
2018-01-31T20:49:48.945Z,8.13
2018-01-31T20:52:17.236Z,8.09
2018-01-31T20:54:45.559Z,8.06
2018-01-31T20:57:13.829Z,8.10
2018-01-31T20:59:42.174Z,8.03
2018-01-31T21:02:10.486Z,8.08
2018-01-31T21:04:38.810Z,8.13
2018-01-31T21:07:07.129Z,8.16
2018-01-31T21:09:35.444Z,8.08
2018-01-31T21:12:03.757Z,8.03
2018-01-31T21:14:32.028Z,7.92
2018-01-31T21:17:00.343Z,7.89
2018-01-31T21:19:28.673Z,7.80
2018-01-31T21:21:56.999Z,7.76
2018-01-31T21:24:25.283Z,7.87
2018-01-31T21:26:53.580Z,7.83
2018-01-31T21:29:21.877Z,7.76
2018-01-31T21:31:50.203Z,7.71
2018-01-31T21:34:18.480Z,7.65
2018-01-31T21:36:48.319Z,7.60
2018-01-31T21:39:16.606Z,7.71
2018-01-31T21:41:44.907Z,7.80
2018-01-31T21:44:13.208Z,7.87
2018-01-31T21:46:41.492Z,7.85
2018-01-31T21:49:09.778Z,7.83
2018-01-31T21:51:38.078Z,7.80
2018-01-31T21:54:06.374Z,7.88
2018-01-31T21:56:34.653Z,7.92
2018-01-31T21:59:02.981Z,7.94
2018-01-31T22:01:31.223Z,7.90
2018-01-31T22:03:59.476Z,8.01
2018-01-31T22:06:27.779Z,8.11
2018-01-31T22:08:56.067Z,8.16
2018-01-31T22:11:24.434Z,8.23
2018-01-31T22:13:52.737Z,8.19
2018-01-31T22:16:21.022Z,8.10
2018-01-31T22:18:49.293Z,8.03
2018-01-31T22:21:17.610Z,8.08
2018-01-31T22:23:45.897Z,8.09
2018-01-31T22:26:14.194Z,8.14
2018-01-31T22:28:43.013Z,8.13
2018-01-31T22:31:11.298Z,8.12
2018-01-31T22:33:39.602Z,7.97
2018-01-31T22:36:07.885Z,7.94
2018-01-31T22:38:36.181Z,7.85
2018-01-31T22:41:04.775Z,7.42
2018-01-31T22:43:33.125Z,7.83
2018-01-31T22:46:01.699Z,7.85
2018-01-31T22:48:29.978Z,7.80
2018-01-31T22:50:58.578Z,7.80
2018-01-31T22:53:26.844Z,7.75
2018-01-31T22:55:55.606Z,7.80
2018-01-31T22:58:25.147Z,7.89
2018-01-31T23:00:53.424Z,7.83
2018-01-31T23:03:21.732Z,7.68
2018-01-31T23:05:49.988Z,7.60
2018-01-31T23:08:18.329Z,7.49
2018-01-31T23:10:46.640Z,7.32
2018-01-31T23:13:18.560Z,7.39
2018-01-31T23:15:46.847Z,7.49
2018-01-31T23:18:19.001Z,7.54
2018-01-31T23:20:48.088Z,7.61
2018-01-31T23:23:16.392Z,7.52
2018-01-31T23:25:44.677Z,7.36
2018-01-31T23:28:12.979Z,7.29
2018-01-31T23:30:41.260Z,7.33
2018-01-31T23:33:09.843Z,7.26
2018-01-31T23:35:38.088Z,7.22
2018-01-31T23:38:06.370Z,7.19
2018-01-31T23:40:34.683Z,7.20
2018-01-31T23:43:02.939Z,7.26
2018-01-31T23:45:31.193Z,7.23
2018-01-31T23:47:59.456Z,7.31
2018-01-31T23:50:27.734Z,7.26
2018-01-31T23:52:56.015Z,7.17
2018-01-31T23:55:24.363Z,7.11
2018-01-31T23:57:52.582Z,7.02
